Terminal Aerodrome Forecast
Issued by NWS

Home | Current Version | Previous Version | Text Only | Print | Product List | Glossary On
Versions: 1 2 3 4 5 6 7 8 9 10 11 12 13 14 15 16 17 18 19
000
FTUS43 KIND 300800 AAA
TAFHUF
TAF AMD
KHUF 300854Z 3009/0106 25006KT P6SM SCT030
      TEMPO 3009/3010 -TSRA BKN040CB
     FM301000 25006KT 5SM BR SCT015 OVC030
      TEMPO 3010/3012 3SM SHRA OVC015
     FM301600 27010KT P6SM BKN035 PROB30 3018/3024 3SM TSRA
      OVC030CB=

USA.gov is the U.S. government's official web portal to all federal, state and local government web resources and services.